Time;durP1;ratioP1;P1;durP2;ratioP2;P2;SDS_P1;SDS_P2;PMS_P1;PMS_P2;Temp;Humidity;BMP_temperature;BMP_pressure;BME280_temperature;BME280_humidity;BME280_pressure;Samples;Min_cycle;Max_cycle;Signal;HPM_P1;HPM_P2
2022/03/03 00:00:36;;;;;;;104.45;49.77;;;;;;;-1.14;66.52;101102.50;1608096;87;25909;-77
2022/03/03 00:03:04;;;;;;;106.83;49.93;;;;;;;-1.14;66.59;101096.78;1600062;88;25318;-76
2022/03/03 00:05:30;;;;;;;113.17;49.20;;;;;;;-1.16;66.50;101096.04;1610906;87;26497;-76
2022/03/03 00:07:57;;;;;;;111.05;48.85;;;;;;;-1.18;66.55;101099.24;1607709;87;25859;-77
2022/03/03 00:10:23;;;;;;;105.03;51.18;;;;;;;-1.18;66.64;101087.87;1610128;88;27438;-77
2022/03/03 00:12:49;;;;;;;102.85;51.63;;;;;;;-1.18;66.84;101084.79;1608106;88;25948;-77
2022/03/03 00:15:15;;;;;;;99.72;48.52;;;;;;;-1.16;67.02;101079.42;1608586;88;25913;-76
2022/03/03 00:17:41;;;;;;;108.35;50.58;;;;;;;-1.14;66.99;101076.22;1609962;88;25878;-77
2022/03/03 00:20:09;;;;;;;101.65;46.23;;;;;;;-1.17;66.95;101073.31;1607985;88;26530;-77
2022/03/03 00:22:35;;;;;;;104.67;50.95;;;;;;;-1.25;67.06;101072.98;1607916;87;28287;-77
2022/03/03 00:25:02;;;;;;;103.78;50.60;;;;;;;-1.34;67.47;101074.89;1609848;88;26581;-76
2022/03/03 00:27:28;;;;;;;114.00;57.10;;;;;;;-1.37;67.67;101070.31;1608347;88;25785;-77
2022/03/03 00:29:54;;;;;;;113.22;55.03;;;;;;;-1.37;67.62;101066.38;1610898;88;25960;-77
2022/03/03 00:32:20;;;;;;;112.40;56.37;;;;;;;-1.35;67.95;101061.86;1607345;88;25816;-77
2022/03/03 00:34:47;;;;;;;118.02;53.30;;;;;;;-1.35;67.97;101060.55;1613483;88;27446;-77
2022/03/03 00:37:13;;;;;;;104.27;51.50;;;;;;;-1.34;68.08;101058.27;1599303;88;25908;-77
2022/03/03 00:39:39;;;;;;;103.67;50.55;;;;;;;-1.36;67.90;101059.69;1609602;88;25897;-77
2022/03/03 00:42:05;;;;;;;109.85;51.02;;;;;;;-1.40;67.82;101059.52;1603149;88;25821;-77
2022/03/03 00:44:31;;;;;;;104.10;52.73;;;;;;;-1.42;67.80;101057.94;1608544;88;25928;-77
2022/03/03 00:46:58;;;;;;;108.57;49.83;;;;;;;-1.46;67.56;101057.30;1611044;87;27452;-78
2022/03/03 00:49:24;;;;;;;104.97;49.60;;;;;;;-1.51;67.52;101059.83;1609947;87;26712;-77
2022/03/03 00:51:50;;;;;;;106.72;50.90;;;;;;;-1.58;67.73;101059.38;1606449;88;26445;-76
2022/03/03 00:54:16;;;;;;;104.78;49.63;;;;;;;-1.58;67.73;101059.38;1610075;88;25802;-77
2022/03/03 00:56:42;;;;;;;98.07;47.25;;;;;;;-1.70;68.58;101068.06;1607234;88;25778;-77
2022/03/03 00:59:10;;;;;;;97.27;45.45;;;;;;;-1.70;68.58;101068.06;1613030;88;28268;-76
2022/03/03 01:01:37;;;;;;;104.27;47.15;;;;;;;-1.84;68.50;101064.16;1606378;88;25799;-77
2022/03/03 01:04:03;;;;;;;97.08;47.50;;;;;;;-1.94;68.32;101049.91;1609991;88;25833;-77
2022/03/03 01:06:29;;;;;;;94.87;46.65;;;;;;;-1.97;68.61;101052.74;1608018;87;25798;-77
2022/03/03 01:08:55;;;;;;;94.25;46.95;;;;;;;-2.01;68.68;101049.45;1600214;87;25808;-76
2022/03/03 01:11:22;;;;;;;106.35;47.65;;;;;;;-2.01;68.68;101049.45;1607522;88;28272;-77
2022/03/03 01:13:48;;;;;;;101.25;48.73;;;;;;;-2.00;69.16;101048.98;1607214;87;25303;-76
2022/03/03 01:16:14;;;;;;;101.20;46.50;;;;;;;-2.01;69.34;101047.31;1614795;88;25872;-78
2022/03/03 01:18:42;;;;;;;102.32;47.83;;;;;;;-2.04;69.27;101042.24;1607132;87;25825;-78
2022/03/03 01:21:08;;;;;;;110.97;49.10;;;;;;;-2.10;69.24;101041.32;1604418;88;25878;-78
2022/03/03 01:23:34;;;;;;;101.85;47.75;;;;;;;-2.10;69.24;101041.32;1614183;87;27458;-76
2022/03/03 01:26:01;;;;;;;103.27;48.23;;;;;;;-2.12;69.53;101037.49;1607692;87;25642;-77
2022/03/03 01:28:29;;;;;;;103.72;48.65;;;;;;;-2.11;69.78;101037.84;1609597;88;25857;-77
2022/03/03 01:30:55;;;;;;;97.72;48.02;;;;;;;-2.18;69.46;101017.34;1609674;88;26565;-77
2022/03/03 01:33:21;;;;;;;109.32;50.10;;;;;;;-2.18;69.46;101017.34;1603395;87;26113;-77
2022/03/03 01:35:48;;;;;;;102.78;48.68;;;;;;;-2.14;69.58;101021.46;1606658;88;28308;-76
2022/03/03 01:38:14;;;;;;;102.22;49.20;;;;;;;-2.16;69.56;101018.09;1601618;88;25822;-77
2022/03/03 01:40:40;;;;;;;109.60;49.00;;;;;;;-2.16;69.63;101014.16;1607546;88;25833;-79
2022/03/03 01:43:06;;;;;;;117.93;53.33;;;;;;;-2.19;69.76;101009.94;1602635;87;25838;-78
2022/03/03 01:45:33;;;;;;;107.47;53.33;;;;;;;-2.12;69.73;101020.89;1608961;88;25812;-77
2022/03/03 01:48:00;;;;;;;118.53;55.30;;;;;;;-2.09;69.93;101022.84;1606914;88;46564;-78
2022/03/03 01:50:26;;;;;;;110.90;51.55;;;;;;;-2.11;69.72;101015.54;1608524;88;25810;-77
2022/03/03 01:52:53;;;;;;;105.00;50.67;;;;;;;-2.10;69.67;101017.24;1608596;87;25959;-77
2022/03/03 01:55:19;;;;;;;116.53;52.58;;;;;;;-2.15;69.75;101009.27;1610080;88;25772;-76
2022/03/03 01:57:49;;;;;;;107.78;51.40;;;;;;;-2.15;69.75;101009.27;1603511;88;25888;-76
2022/03/03 02:00:17;;;;;;;112.55;51.85;;;;;;;-2.19;69.62;101008.62;1609017;87;28255;-77
2022/03/03 02:02:45;;;;;;;109.52;51.08;;;;;;;-2.21;69.53;100996.53;1607183;88;25790;-79
2022/03/03 02:05:11;;;;;;;113.88;54.05;;;;;;;-2.21;69.53;100996.53;1608813;88;25762;-77
2022/03/03 02:07:38;;;;;;;114.57;53.78;;;;;;;-2.17;69.94;101000.65;1589290;88;25907;-78
2022/03/03 02:10:05;;;;;;;120.97;54.53;;;;;;;-2.17;69.96;101001.50;1603533;87;26064;-77
2022/03/03 02:12:31;;;;;;;113.70;51.63;;;;;;;-2.19;69.91;100994.19;1612617;88;27468;-77
2022/03/03 02:14:59;;;;;;;111.17;55.45;;;;;;;-2.20;69.60;101002.17;1609053;88;25907;-77
2022/03/03 02:17:25;;;;;;;114.10;52.15;;;;;;;-2.22;69.86;100994.87;1606510;88;25818;-78
2022/03/03 02:19:51;;;;;;;121.65;54.10;;;;;;;-2.24;69.75;100998.02;1608051;88;26587;-78
2022/03/03 02:22:17;;;;;;;122.90;54.25;;;;;;;-2.26;69.92;100999.91;1614267;87;25796;-80
2022/03/03 02:24:43;;;;;;;112.15;51.73;;;;;;;-2.29;69.87;100997.03;1610735;87;27460;-77
2022/03/03 02:27:10;;;;;;;111.97;52.43;;;;;;;-2.29;69.87;100997.03;1607402;87;26661;-77
2022/03/03 02:29:37;;;;;;;108.05;50.95;;;;;;;-2.30;69.88;100990.55;1608025;88;25865;-77
2022/03/03 02:32:06;;;;;;;113.97;53.78;;;;;;;-2.39;70.06;100979.69;1599612;88;26434;-77
2022/03/03 02:34:34;;;;;;;116.93;52.30;;;;;;;-2.36;69.84;100986.08;1608896;88;26618;-78
2022/03/03 02:37:00;;;;;;;107.72;51.73;;;;;;;-2.44;70.17;100978.30;1609669;88;28370;-80
2022/03/03 02:39:26;;;;;;;113.42;52.85;;;;;;;-2.42;70.79;100982.49;1606562;88;26028;-79
2022/03/03 02:41:52;;;;;;;103.47;49.58;;;;;;;-2.46;70.91;100981.49;1606237;88;26572;-77
2022/03/03 02:44:19;;;;;;;100.00;50.25;;;;;;;-2.46;70.91;100981.49;1606539;88;26610;-77
2022/03/03 02:46:45;;;;;;;105.12;48.92;;;;;;;-2.49;70.80;100975.11;1609829;87;25968;-77
2022/03/03 02:49:11;;;;;;;106.90;51.55;;;;;;;-2.54;70.54;100970.15;1606323;88;28371;-76
2022/03/03 02:51:38;;;;;;;107.58;51.05;;;;;;;-2.59;70.36;100967.45;1606803;88;25998;-77
2022/03/03 02:54:04;;;;;;;121.53;63.83;;;;;;;-2.59;70.53;100961.71;1610175;87;26121;-77
2022/03/03 02:56:31;;;;;;;121.65;58.28;;;;;;;-2.56;70.90;100961.53;1610158;88;25926;-76
2022/03/03 02:58:57;;;;;;;123.18;67.12;;;;;;;-2.53;70.78;100961.82;1609275;88;25836;-77
2022/03/03 03:01:23;;;;;;;116.35;61.28;;;;;;;-2.52;70.81;100966.96;1603774;87;27554;-76
2022/03/03 03:03:50;;;;;;;112.05;54.70;;;;;;;-2.53;70.87;100952.64;1609126;87;25931;-77
2022/03/03 03:06:16;;;;;;;109.10;54.03;;;;;;;-2.50;70.84;100960.30;1609732;88;25782;-77
2022/03/03 03:08:42;;;;;;;112.40;51.25;;;;;;;-2.53;70.66;100953.95;1606152;88;25829;-77
2022/03/03 03:11:09;;;;;;;112.40;51.80;;;;;;;-2.53;70.66;100953.95;1611511;88;26057;-77
2022/03/03 03:13:35;;;;;;;104.87;52.70;;;;;;;-2.54;70.79;100947.86;1610781;87;27451;-77
2022/03/03 03:16:02;;;;;;;110.97;53.50;;;;;;;-2.54;70.87;100951.80;1610824;88;25837;-76
2022/03/03 03:18:28;;;;;;;111.72;54.55;;;;;;;-2.55;70.78;100946.66;1606263;88;26142;-76
2022/03/03 03:20:54;;;;;;;114.60;52.55;;;;;;;-2.54;70.75;100948.31;1610224;88;25770;-77
2022/03/03 03:23:23;;;;;;;108.67;53.52;;;;;;;-2.52;71.11;100952.54;1609316;88;26542;-77
2022/03/03 03:25:50;;;;;;;113.25;54.33;;;;;;;-2.50;71.17;100941.48;1610346;88;28336;-77
2022/03/03 03:28:19;;;;;;;111.22;51.63;;;;;;;-2.52;70.78;100938.11;1612596;88;25923;-77
2022/03/03 03:30:46;;;;;;;106.97;53.10;;;;;;;-2.52;70.95;100941.20;1610493;88;26584;-77
2022/03/03 03:33:12;;;;;;;108.20;51.80;;;;;;;-2.56;70.83;100934.46;1611935;88;26276;-77
2022/03/03 03:35:40;;;;;;;114.50;53.30;;;;;;;-2.60;71.18;100932.52;1614514;88;26432;-77
2022/03/03 03:38:06;;;;;;;114.00;55.15;;;;;;;-2.62;71.25;100929.14;1603691;88;28257;-76
2022/03/03 03:40:33;;;;;;;111.47;52.55;;;;;;;-2.64;71.22;100931.02;1610628;87;25881;-77
2022/03/03 03:42:59;;;;;;;114.95;54.73;;;;;;;-2.64;71.35;100918.37;1607345;87;26152;-77
2022/03/03 03:45:25;;;;;;;123.47;54.88;;;;;;;-2.65;71.47;100919.33;1607102;88;26151;-77
2022/03/03 03:47:52;;;;;;;109.03;52.13;;;;;;;-2.63;71.57;100918.76;1609008;87;26471;-78
2022/03/03 03:50:18;;;;;;;110.88;54.50;;;;;;;-2.61;71.69;100908.52;1610817;88;27535;-77
2022/03/03 03:52:44;;;;;;;106.32;52.13;;;;;;;-2.57;71.71;100911.81;1609997;87;25805;-77
2022/03/03 03:55:12;;;;;;;107.37;52.33;;;;;;;-2.58;71.40;100914.90;1608173;88;25865;-77
2022/03/03 03:57:39;;;;;;;110.50;56.37;;;;;;;-2.59;71.31;100909.27;1603938;87;25962;-77
2022/03/03 04:00:16;;;;;;;115.10;56.68;;;;;;;-2.60;71.53;100897.11;1606609;88;25950;-77
2022/03/03 04:02:42;;;;;;;117.77;56.35;;;;;;;-2.60;71.60;100894.48;1609791;88;28418;-77
2022/03/03 04:05:10;;;;;;;117.67;56.63;;;;;;;-2.53;71.89;100891.86;1608027;88;25746;-76
2022/03/03 04:07:37;;;;;;;122.75;56.55;;;;;;;-2.53;71.89;100891.86;1610582;88;25806;-76
2022/03/03 04:10:04;;;;;;;112.08;54.27;;;;;;;-2.50;72.25;100886.41;1610757;87;26630;-77
2022/03/03 04:12:30;;;;;;;115.97;57.48;;;;;;;-2.46;72.37;100891.01;1611408;88;25528;-78
2022/03/03 04:14:57;;;;;;;120.77;57.08;;;;;;;-2.43;72.53;100884.23;1607556;88;27509;-79
2022/03/03 04:17:23;;;;;;;119.40;59.13;;;;;;;-2.39;72.50;100888.34;1610728;88;25774;-77
2022/03/03 04:19:49;;;;;;;119.97;57.62;;;;;;;-2.39;72.56;100890.50;1617848;88;26475;-78
2022/03/03 04:22:16;;;;;;;116.20;55.45;;;;;;;-2.43;72.63;100895.58;1607222;87;25923;-77
2022/03/03 04:24:42;;;;;;;113.90;53.92;;;;;;;-2.50;72.55;100892.11;1603975;87;26517;-76
2022/03/03 04:27:08;;;;;;;118.13;54.73;;;;;;;-2.55;72.56;100891.58;1611069;88;27513;-77
2022/03/03 04:29:34;;;;;;;115.90;54.93;;;;;;;-2.60;72.52;100886.62;1608714;88;26461;-77
2022/03/03 04:32:00;;;;;;;112.77;54.23;;;;;;;-2.65;72.57;100885.24;1610016;88;25801;-78
2022/03/03 04:34:27;;;;;;;113.85;52.15;;;;;;;-2.68;72.58;100886.27;1606508;88;26516;-77
2022/03/03 04:36:53;;;;;;;106.25;51.80;;;;;;;-2.69;72.41;100882.41;1605144;88;25791;-78
2022/03/03 04:39:20;;;;;;;105.85;50.38;;;;;;;-2.71;72.36;100881.66;1610732;88;27521;-77
2022/03/03 04:41:46;;;;;;;114.17;52.38;;;;;;;-2.70;72.29;100879.43;1614323;87;25816;-77
2022/03/03 04:44:13;;;;;;;103.80;50.98;;;;;;;-2.69;72.11;100879.78;1614498;87;25802;-77
2022/03/03 04:46:39;;;;;;;119.47;55.23;;;;;;;-2.68;72.00;100882.80;1604379;88;25938;-77
2022/03/03 04:49:05;;;;;;;109.78;51.02;;;;;;;-2.68;72.19;100881.02;1613472;88;26555;-78
2022/03/03 04:51:36;;;;;;;112.83;52.65;;;;;;;-2.69;72.01;100881.95;1600052;88;27547;-78
2022/03/03 04:54:00;;;;;;;106.30;52.48;;;;;;;-2.67;71.96;100877.45;1602822;88;25902;-77
2022/03/03 04:56:26;;;;;;;104.65;51.33;;;;;;;-2.66;71.93;100875.22;1607271;88;25808;-77
2022/03/03 04:58:52;;;;;;;109.32;51.48;;;;;;;-2.63;72.13;100874.19;1601998;88;26568;-77
2022/03/03 05:01:18;;;;;;;112.72;53.95;;;;;;;-2.60;72.07;100868.73;1606399;88;25774;-76
2022/03/03 05:03:45;;;;;;;113.70;55.88;;;;;;;-2.59;71.96;100870.43;1609762;88;27666;-77
2022/03/03 05:06:11;;;;;;;126.70;59.38;;;;;;;-2.59;71.96;100871.73;1607960;88;25874;-77
2022/03/03 05:08:37;;;;;;;128.35;59.73;;;;;;;-2.59;72.16;100867.80;1610757;87;25409;-77
2022/03/03 05:11:04;;;;;;;135.60;62.62;;;;;;;-2.58;72.30;100869.01;1614252;88;26560;-77
2022/03/03 05:13:30;;;;;;;127.40;62.67;;;;;;;-2.57;72.56;100873.80;1614402;87;25395;-76
2022/03/03 05:15:56;;;;;;;121.20;60.03;;;;;;;-2.55;72.77;100867.98;1604824;87;28272;-77
2022/03/03 05:18:22;;;;;;;128.35;65.05;;;;;;;-2.52;72.91;100858.59;1600743;88;25865;-75
2022/03/03 05:20:49;;;;;;;133.07;64.10;;;;;;;-2.52;72.91;100858.59;1604159;88;26673;-77
2022/03/03 05:23:15;;;;;;;118.60;60.60;;;;;;;-2.51;72.71;100861.14;1608606;87;26600;-76
2022/03/03 05:25:43;;;;;;;129.18;60.98;;;;;;;-2.50;72.99;100862.80;1607520;88;25399;-77
2022/03/03 05:28:09;;;;;;;137.88;62.40;;;;;;;-2.50;72.99;100862.80;1606174;87;28070;-76
2022/03/03 05:30:37;;;;;;;125.50;60.05;;;;;;;-2.50;73.08;100865.42;1609927;88;25834;-75
2022/03/03 05:33:04;;;;;;;122.85;59.23;;;;;;;-2.47;73.29;100861.31;1609712;88;25928;-76
2022/03/03 05:35:30;;;;;;;119.45;58.15;;;;;;;-2.46;73.05;100851.66;1607961;88;26651;-77
2022/03/03 05:37:57;;;;;;;126.07;60.15;;;;;;;-2.46;73.05;100851.17;1607083;88;25839;-78
2022/03/03 05:40:23;;;;;;;120.22;60.92;;;;;;;-2.47;73.48;100862.62;1607344;87;27515;-77
2022/03/03 05:42:50;;;;;;;130.70;62.67;;;;;;;-2.48;73.83;100865.34;1606246;88;25798;-77
2022/03/03 05:45:16;;;;;;;123.95;60.95;;;;;;;-2.52;73.13;100859.90;1606393;88;25868;-77
2022/03/03 05:47:45;;;;;;;135.15;68.00;;;;;;;-2.59;73.06;100867.80;1602697;88;26569;-78
2022/03/03 05:50:11;;;;;;;139.25;65.83;;;;;;;-2.64;73.11;100867.24;1604479;88;25922;-78
2022/03/03 05:52:37;;;;;;;134.57;62.75;;;;;;;-2.63;73.37;100861.89;1610579;87;27503;-77
2022/03/03 05:55:05;;;;;;;124.15;60.73;;;;;;;-2.66;72.94;100867.81;1612472;88;25752;-77
2022/03/03 05:57:35;;;;;;;103.55;52.90;;;;;;;-2.70;72.62;100867.63;1610365;88;25864;-77
2022/03/03 06:00:12;;;;;;;104.00;51.58;;;;;;;-2.74;72.54;100867.00;1607492;88;26008;-76
2022/03/03 06:02:51;;;;;;;102.80;51.85;;;;;;;-2.81;72.62;100858.28;1603339;87;25895;-76
2022/03/03 06:05:22;;;;;;;113.90;55.67;;;;;;;-2.88;72.83;100854.35;1612554;88;27475;-77
2022/03/03 06:07:53;;;;;;;109.55;52.62;;;;;;;-2.88;72.83;100854.35;1608981;88;25918;-76
2022/03/03 06:10:23;;;;;;;115.95;54.42;;;;;;;-2.87;73.33;100847.73;1609018;87;25877;-77
2022/03/03 06:12:54;;;;;;;122.47;59.13;;;;;;;-2.88;73.33;100853.04;1611281;88;25870;-76
2022/03/03 06:15:23;;;;;;;123.35;55.95;;;;;;;-2.85;73.61;100855.48;1597532;88;26009;-77
2022/03/03 06:17:54;;;;;;;144.53;67.62;;;;;;;-2.82;73.81;100859.23;1606390;87;27483;-77
2022/03/03 06:20:20;;;;;;;180.90;83.07;;;;;;;-2.81;73.98;100840.78;1608589;87;25800;-76
2022/03/03 06:22:46;;;;;;;166.18;75.95;;;;;;;-2.65;74.58;100862.95;1587944;88;26236;-77
2022/03/03 06:25:13;;;;;;;172.05;81.75;;;;;;;-2.65;74.58;100862.95;1606868;87;25958;-76
2022/03/03 06:27:39;;;;;;;175.40;82.88;;;;;;;-2.60;74.44;100855.16;1611819;88;26496;-76
2022/03/03 06:30:07;;;;;;;150.05;72.22;;;;;;;-2.54;74.47;100853.91;1613445;88;27534;-76
2022/03/03 06:32:33;;;;;;;142.47;67.42;;;;;;;-2.47;74.89;100845.58;1606201;88;26424;-76
2022/03/03 06:35:00;;;;;;;150.40;79.30;;;;;;;-2.41;75.09;100849.57;1609789;88;26029;-77
2022/03/03 06:37:26;;;;;;;160.32;76.55;;;;;;;-2.36;75.23;100844.88;1606606;88;26030;-77
2022/03/03 06:39:53;;;;;;;148.15;72.47;;;;;;;-2.24;75.67;100849.33;1606211;88;25920;-77
2022/03/03 06:42:19;;;;;;;161.32;82.15;;;;;;;-2.24;75.67;100849.33;1609207;88;28325;-76
2022/03/03 06:44:45;;;;;;;160.65;80.85;;;;;;;-2.19;75.91;100857.75;1607083;87;25302;-77
2022/03/03 06:47:11;;;;;;;148.55;73.65;;;;;;;-2.12;76.52;100858.19;1609384;87;25305;-78
2022/03/03 06:49:37;;;;;;;145.43;70.35;;;;;;;-2.07;76.48;100857.41;1609781;88;26068;-77
2022/03/03 06:52:07;;;;;;;141.07;67.67;;;;;;;-2.00;76.81;100866.56;1603842;88;26492;-77
2022/03/03 06:54:34;;;;;;;142.93;69.87;;;;;;;-1.95;77.32;100860.55;1614762;87;27464;-77
2022/03/03 06:57:00;;;;;;;150.22;72.70;;;;;;;-1.90;77.38;100863.70;1611538;87;26529;-78
2022/03/03 06:59:33;;;;;;;152.65;72.15;;;;;;;-1.82;77.38;100870.13;1620508;88;25944;-77
2022/03/03 07:02:00;;;;;;;155.50;74.62;;;;;;;-1.81;77.69;100856.53;1606160;88;25810;-77
2022/03/03 07:04:29;;;;;;;152.97;72.95;;;;;;;-1.68;77.74;100875.31;1609994;88;25309;-76
2022/03/03 07:06:56;;;;;;;172.72;80.40;;;;;;;-1.66;77.90;100854.20;1606358;88;27455;-77
2022/03/03 07:09:22;;;;;;;161.73;78.42;;;;;;;-1.55;77.78;100867.45;1609790;88;25936;-76
2022/03/03 07:11:50;;;;;;;163.57;78.80;;;;;;;-1.46;77.94;100861.58;1604028;88;25790;-77
2022/03/03 07:14:18;;;;;;;147.37;71.50;;;;;;;-1.26;78.43;100872.05;1611875;87;25836;-77
2022/03/03 07:17:08;;;;;;;147.68;73.17;;;;;;;-1.26;78.43;100872.05;1610003;88;25969;-78
2022/03/03 07:19:45;;;;;;;150.85;74.37;;;;;;;-1.17;78.12;100865.67;1600962;88;28208;-77
2022/03/03 07:22:22;;;;;;;146.75;70.97;;;;;;;-1.08;78.17;100866.83;1598292;88;25657;-77
2022/03/03 07:25:11;;;;;;;146.98;69.92;;;;;;;-0.97;78.59;100862.98;1595935;88;25857;-77
2022/03/03 07:27:46;;;;;;;126.02;60.83;;;;;;;-0.84;79.58;100856.77;1614368;87;26607;-77
2022/03/03 07:30:15;;;;;;;141.60;66.30;;;;;;;-0.71;79.34;100858.05;1608421;88;25766;-76
2022/03/03 07:32:59;;;;;;;122.03;60.00;;;;;;;-0.60;79.37;100852.03;1610757;87;27492;-76
2022/03/03 07:35:26;;;;;;;121.30;56.73;;;;;;;-0.50;78.37;100851.25;1609398;88;25755;-76
2022/03/03 07:37:58;;;;;;;123.20;57.78;;;;;;;-0.42;78.38;100851.53;1607059;88;25846;-77
2022/03/03 07:40:30;;;;;;;122.87;61.98;;;;;;;-0.37;77.84;100848.58;1610660;88;26598;-76
2022/03/03 07:42:57;;;;;;;126.92;60.08;;;;;;;-0.35;78.36;100843.57;1608930;87;25773;-76
2022/03/03 07:45:25;;;;;;;130.40;63.90;;;;;;;-0.33;78.10;100847.40;1610891;87;27555;-77
2022/03/03 07:47:55;;;;;;;119.85;61.45;;;;;;;-0.28;77.71;100842.15;1611432;88;25814;-78
2022/03/03 07:50:24;;;;;;;116.53;59.25;;;;;;;-0.21;77.82;100837.28;1607730;88;25844;-76
2022/03/03 07:52:50;;;;;;;124.42;60.95;;;;;;;-0.15;77.90;100849.52;1599241;88;26634;-77
2022/03/03 07:55:19;;;;;;;116.25;58.02;;;;;;;-0.11;77.54;100839.12;1608325;88;25821;-76
2022/03/03 07:58:03;;;;;;;127.70;63.20;;;;;;;-0.04;77.44;100842.98;1610138;88;27522;-77
2022/03/03 08:00:33;;;;;;;123.78;60.12;;;;;;;0.00;76.92;100844.94;1603239;88;25869;-77
2022/03/03 08:03:03;;;;;;;112.12;54.33;;;;;;;0.07;76.61;100846.14;1610486;88;25916;-76
2022/03/03 08:05:31;;;;;;;121.05;58.33;;;;;;;0.11;76.25;100844.14;1602622;88;25945;-77
2022/03/03 08:08:02;;;;;;;120.10;59.10;;;;;;;0.13;76.47;100844.36;1608226;88;26418;-78
2022/03/03 08:10:30;;;;;;;116.05;58.23;;;;;;;0.16;76.32;100839.34;1610135;88;33888;-76
2022/03/03 08:12:59;;;;;;;124.35;60.45;;;;;;;0.21;75.76;100847.76;1608546;87;25775;-77
2022/03/03 08:15:26;;;;;;;113.97;59.23;;;;;;;0.27;75.96;100839.39;1607827;88;26528;-76
2022/03/03 08:17:54;;;;;;;117.37;58.30;;;;;;;0.36;75.71;100841.34;1609177;88;25890;-77
2022/03/03 08:20:22;;;;;;;117.67;57.90;;;;;;;0.39;75.34;100839.30;1609604;88;25993;-77
2022/03/03 08:22:49;;;;;;;119.72;59.15;;;;;;;0.46;75.51;100837.89;1603794;88;28258;-77
2022/03/03 08:25:17;;;;;;;109.97;55.55;;;;;;;0.50;75.49;100835.85;1608715;87;25789;-77
2022/03/03 08:27:43;;;;;;;113.83;58.95;;;;;;;0.54;75.32;100836.81;1610085;88;25861;-76
2022/03/03 08:30:12;;;;;;;107.97;55.88;;;;;;;0.59;74.85;100841.27;1604179;88;26487;-76
2022/03/03 08:32:43;;;;;;;110.25;56.83;;;;;;;0.66;75.12;100837.19;1607141;88;25940;-78
2022/03/03 08:35:17;;;;;;;115.55;58.33;;;;;;;0.71;75.16;100837.69;1602538;88;28337;-77
2022/03/03 08:37:52;;;;;;;115.65;58.05;;;;;;;0.79;75.03;100837.92;1609691;88;25862;-77
2022/03/03 08:40:18;;;;;;;114.82;55.83;;;;;;;0.88;75.35;100831.09;1600961;88;25977;-77
2022/03/03 08:42:49;;;;;;;113.47;58.00;;;;;;;0.97;75.02;100834.34;1602853;88;25834;-76
2022/03/03 08:45:19;;;;;;;110.55;57.10;;;;;;;1.05;74.88;100826.66;1609065;88;25970;-77
2022/03/03 08:47:56;;;;;;;116.22;57.30;;;;;;;1.16;75.16;100820.53;1611813;88;27478;-77
2022/03/03 08:50:27;;;;;;;106.22;51.65;;;;;;;1.28;75.25;100831.45;1609945;88;26079;-77
2022/03/03 08:52:56;;;;;;;98.92;50.38;;;;;;;1.37;74.00;100824.95;1610289;87;25849;-77
2022/03/03 08:55:23;;;;;;;97.25;51.40;;;;;;;1.46;72.73;100829.97;1609200;88;26498;-76
2022/03/03 08:57:52;;;;;;;92.57;49.83;;;;;;;1.52;72.40;100828.15;1611066;88;26697;-76
2022/03/03 09:00:19;;;;;;;99.55;51.13;;;;;;;1.60;72.01;100822.27;1606400;88;27317;-76
2022/03/03 09:02:48;;;;;;;104.92;53.13;;;;;;;1.67;71.61;100819.50;1608816;88;25845;-77
2022/03/03 09:05:17;;;;;;;89.32;46.13;;;;;;;1.75;71.58;100821.03;1606640;88;25797;-75
2022/03/03 09:07:45;;;;;;;103.85;53.38;;;;;;;1.83;70.96;100822.55;1608419;88;25764;-77
2022/03/03 09:10:12;;;;;;;98.92;51.13;;;;;;;1.90;70.91;100828.55;1608536;88;26070;-76
2022/03/03 09:12:39;;;;;;;96.60;53.30;;;;;;;1.98;71.13;100830.06;1603542;88;27464;-77
2022/03/03 09:15:07;;;;;;;100.07;52.35;;;;;;;2.08;70.59;100827.48;1609197;88;25910;-76
2022/03/03 09:17:35;;;;;;;98.67;51.08;;;;;;;2.12;70.04;100822.30;1610253;88;25820;-76
2022/03/03 09:20:04;;;;;;;99.85;51.10;;;;;;;2.18;70.00;100823.14;1607840;88;26581;-77
2022/03/03 09:22:30;;;;;;;106.87;55.92;;;;;;;2.26;69.71;100821.53;1610894;88;26566;-77
2022/03/03 09:24:56;;;;;;;95.65;51.75;;;;;;;2.27;68.88;100824.98;1603785;88;27462;-77
2022/03/03 09:27:23;;;;;;;97.35;48.83;;;;;;;2.29;68.63;100821.73;1608905;87;25798;-77
2022/03/03 09:29:49;;;;;;;87.30;47.17;;;;;;;2.37;68.78;100825.07;1609277;88;26037;-76
2022/03/03 09:32:16;;;;;;;88.05;47.55;;;;;;;2.46;68.36;100820.34;1606951;88;25789;-76
2022/03/03 09:34:45;;;;;;;91.92;49.77;;;;;;;2.51;67.98;100823.41;1608990;87;25908;-77
2022/03/03 09:37:10;;;;;;;95.80;48.87;;;;;;;2.55;67.20;100820.37;1609729;88;28277;-76
2022/03/03 09:39:37;;;;;;;98.05;47.40;;;;;;;2.60;67.48;100829.25;1606918;88;25869;-77
2022/03/03 09:42:03;;;;;;;89.83;46.18;;;;;;;2.66;66.97;100820.78;1608935;88;25835;-77
2022/03/03 09:44:30;;;;;;;91.67;47.20;;;;;;;2.75;67.26;100818.69;1609480;88;25928;-76
2022/03/03 09:46:59;;;;;;;97.80;49.18;;;;;;;2.82;67.76;100825.13;1606574;88;25944;-77
2022/03/03 09:49:25;;;;;;;94.92;49.83;;;;;;;2.86;67.10;100821.25;1609110;88;27480;-77
2022/03/03 09:51:52;;;;;;;93.40;50.48;;;;;;;2.96;67.12;100819.00;1607872;88;25943;-77
2022/03/03 09:54:18;;;;;;;90.83;48.28;;;;;;;3.02;66.80;100814.50;1602531;88;25783;-76
2022/03/03 09:56:45;;;;;;;96.57;49.63;;;;;;;3.07;66.24;100817.59;1607487;87;26551;-77
2022/03/03 09:59:14;;;;;;;92.35;47.58;;;;;;;3.14;65.87;100816.57;1607259;87;25951;-79
2022/03/03 10:01:40;;;;;;;90.90;48.28;;;;;;;3.17;65.70;100813.64;1606145;88;27532;-77
2022/03/03 10:04:22;;;;;;;80.00;43.10;;;;;;;3.24;65.08;100815.27;1609641;88;26192;-77
2022/03/03 10:06:49;;;;;;;82.92;45.60;;;;;;;3.29;64.92;100811.26;1602702;88;26459;-77
2022/03/03 10:09:17;;;;;;;86.47;46.37;;;;;;;3.38;64.45;100810.93;1606390;88;25829;-76
2022/03/03 10:12:05;;;;;;;80.35;43.28;;;;;;;3.40;63.99;100801.85;1608461;88;26487;-75
2022/03/03 10:14:35;;;;;;;92.72;47.43;;;;;;;3.51;63.17;100811.02;1605648;88;28322;-78
2022/03/03 10:17:03;;;;;;;84.00;45.40;;;;;;;3.54;63.58;100811.23;1601229;88;25929;-78
2022/03/03 10:19:30;;;;;;;92.27;46.42;;;;;;;3.56;63.66;100807.95;1602610;88;25802;-76
2022/03/03 10:21:56;;;;;;;90.75;49.23;;;;;;;3.58;64.03;100798.06;1606852;88;25792;-76
2022/03/03 10:24:29;;;;;;;84.22;47.30;;;;;;;3.64;63.71;100801.00;1608986;87;25853;-77
2022/03/03 10:27:07;;;;;;;83.07;44.63;;;;;;;3.69;63.22;100800.59;1610265;88;27490;-77
2022/03/03 10:29:35;;;;;;;84.47;45.17;;;;;;;3.69;62.91;100796.63;1606280;88;26243;-77
2022/03/03 10:32:06;;;;;;;88.03;46.65;;;;;;;3.72;63.26;100801.66;1607866;88;25783;-77
2022/03/03 10:34:33;;;;;;;70.55;36.50;;;;;;;3.78;63.06;100806.39;1606859;88;25778;-76
2022/03/03 10:37:08;;;;;;;64.13;33.67;;;;;;;3.81;60.84;100808.75;1608088;88;26566;-76
2022/03/03 10:39:41;;;;;;;68.70;32.48;;;;;;;3.84;60.05;100807.16;1603674;87;27493;-76
2022/03/03 10:42:23;;;;;;;69.27;35.80;;;;;;;3.88;60.34;100801.93;1607359;87;25758;-77
2022/03/03 10:44:53;;;;;;;65.78;33.35;;;;;;;3.93;59.96;100796.55;1608106;88;25760;-77
2022/03/03 10:47:27;;;;;;;56.10;30.68;;;;;;;4.01;60.10;100804.30;1604897;86;25907;-77
2022/03/03 10:49:57;;;;;;;66.22;35.17;;;;;;;4.05;59.21;100803.04;1612686;88;26466;-77
2022/03/03 10:52:27;;;;;;;60.58;33.13;;;;;;;4.04;59.30;100807.53;1607444;88;27343;-77
2022/03/03 10:55:17;;;;;;;53.90;29.50;;;;;;;4.04;59.04;100797.41;1607557;87;25982;-76
2022/03/03 10:57:54;;;;;;;62.03;31.62;;;;;;;4.11;59.84;100800.67;1606071;88;26581;-76
2022/03/03 11:00:28;;;;;;;57.83;30.30;;;;;;;4.18;58.91;100804.92;1609946;88;25834;-77
2022/03/03 11:03:01;;;;;;;52.25;28.85;;;;;;;4.17;58.74;100793.47;1604359;88;25968;-76
2022/03/03 11:05:30;;;;;;;54.65;29.77;;;;;;;4.20;58.67;100794.53;1606405;88;28315;-76
2022/03/03 11:07:58;;;;;;;58.65;32.63;;;;;;;4.21;58.12;100796.22;1611226;88;25901;-76